Time;durP1;ratioP1;P1;durP2;ratioP2;P2;SDS_P1;SDS_P2;PMS_P1;PMS_P2;Temp;Humidity;BMP_temperature;BMP_pressure;BME280_temperature;BME280_humidity;BME280_pressure;Samples;Min_cycle;Max_cycle;Signal;HPM_P1;HPM_P2
2022/09/29 00:01:20;;;;;;;;;;;;;;;;;;5013425;28;7003;-81
2022/09/29 00:03:46;;;;;;;;;;;;;;;;;;5013675;28;7232;-82
2022/09/29 00:06:13;;;;;;;;;;;;;;;;;;5013728;28;7379;-81
2022/09/29 00:08:39;;;;;;;;;;;;;;;;;;5013208;28;7211;-82
2022/09/29 00:11:09;;;;;;;;;;;;;;;;;;5013267;28;6956;-81
2022/09/29 00:13:35;;;;;;;;;;;;;;;;;;5013558;28;8396;-82
2022/09/29 00:16:01;;;;;;;;;;;;;;;;;;5012849;28;7145;-82
2022/09/29 00:18:28;;;;;;;;;;;;;;;;;;5013516;28;8687;-82
2022/09/29 00:21:04;;;;;;;;;;;;;;;;;;5013437;28;7055;-81
2022/09/29 00:23:31;;;;;;;;;;;;;;;;;;5013298;28;8602;-81
2022/09/29 00:26:06;;;;;;;;;;;;;;;;;;5013292;28;7034;-82
2022/09/29 00:28:32;;;;;;;;;;;;;;;;;;4996787;28;8930;-81
2022/09/29 00:31:00;;;;;;;;;;;;;;;;;;5013154;28;7036;-81
2022/09/29 00:33:27;;;;;;;;;;;;;;;;;;5012999;28;7024;-81
2022/09/29 00:35:57;;;;;;;;;;;;;;;;;;5013022;28;8389;-82
2022/09/29 00:38:23;;;;;;;;;;;;;;;;;;5012659;28;7164;-81
2022/09/29 00:40:49;;;;;;;;;;;;;;;;;;5013048;28;7010;-82
2022/09/29 00:43:20;;;;;;;;;;;;;;;;;;5013248;28;8710;-81
2022/09/29 00:45:46;;;;;;;;;;;;;;;;;;5013439;28;7351;-82
2022/09/29 00:48:16;;;;;;;;;;;;;;;;;;5012755;28;8474;-81
2022/09/29 00:50:46;;;;;;;;;;;;;;;;;;5012874;28;9064;-82
2022/09/29 00:53:13;;;;;;;;;;;;;;;;;;5012187;28;8693;-82
2022/09/29 00:55:46;;;;;;;;;;;;;;;;;;5012531;28;7256;-81
2022/09/29 00:58:21;;;;;;;;;;;;;;;;;;5012433;28;8536;-82
2022/09/29 01:00:47;;;;;;;;;;;;;;;;;;5012669;28;7233;-81
2022/09/29 01:03:18;;;;;;;;;;;;;;;;;;5012684;28;8715;-81
2022/09/29 01:05:48;;;;;;;;;;;;;;;;;;5012866;28;7256;-82
2022/09/29 01:08:33;;;;;;;;;;;;;;;;;;5012440;28;7028;-82
2022/09/29 01:11:00;;;;;;;;;;;;;;;;;;4996560;28;8524;-81
2022/09/29 01:13:27;;;;;;;;;;;;;;;;;;5012781;28;8338;-83
2022/09/29 01:15:53;;;;;;;;;;;;;;;;;;5012024;28;7054;-81
2022/09/29 01:18:19;;;;;;;;;;;;;;;;;;5012443;28;8380;-81
2022/09/29 01:21:03;;;;;;;;;;;;;;;;;;5012270;28;8358;-82
2022/09/29 01:23:41;;;;;;;;;;;;;;;;;;4995471;28;8629;-82
2022/09/29 01:26:26;;;;;;;;;;;;;;;;;;4995614;28;8496;-82
2022/09/29 01:29:07;;;;;;;;;;;;;;;;;;4995788;28;7077;-82
2022/09/29 01:31:35;;;;;;;;;;;;;;;;;;4995299;28;8880;-81
2022/09/29 01:34:04;;;;;;;;;;;;;;;;;;4995820;28;8397;-82
2022/09/29 01:36:55;;;;;;;;;;;;;;;;;;4995541;28;8383;-81
2022/09/29 01:39:33;;;;;;;;;;;;;;;;;;5011786;28;7205;-83
2022/09/29 01:42:08;;;;;;;;;;;;;;;;;;5011715;28;9024;-81
2022/09/29 01:44:40;;;;;;;;;;;;;;;;;;5011712;28;6851;-82
2022/09/29 01:47:13;;;;;;;;;;;;;;;;;;4995262;28;6811;-81
2022/09/29 01:49:43;;;;;;;;;;;;;;;;;;5011682;28;7246;-81
2022/09/29 01:52:18;;;;;;;;;;;;;;;;;;5011372;28;8657;-81
2022/09/29 01:54:44;;;;;;;;;;;;;;;;;;5010649;28;8405;-79
2022/09/29 01:57:15;;;;;;;;;;;;;;;;;;4993892;28;8451;-80
2022/09/29 01:59:45;;;;;;;;;;;;;;;;;;5010503;28;8653;-81
2022/09/29 02:02:16;;;;;;;;;;;;;;;;;;5011048;28;8502;-80
2022/09/29 02:04:49;;;;;;;;;;;;;;;;;;5011379;28;8538;-82
2022/09/29 02:07:25;;;;;;;;;;;;;;;;;;5011079;28;7241;-80
2022/09/29 02:09:56;;;;;;;;;;;;;;;;;;5011564;28;8421;-80
2022/09/29 02:12:26;;;;;;;;;;;;;;;;;;5010999;28;6826;-81
2022/09/29 02:14:53;;;;;;;;;;;;;;;;;;5010823;28;8680;-82
2022/09/29 02:17:40;;;;;;;;;;;;;;;;;;5011804;28;7155;-79
2022/09/29 02:20:06;;;;;;;;;;;;;;;;;;5011485;28;7390;-80
2022/09/29 02:22:33;;;;;;;;;;;;;;;;;;5010712;28;9276;-81
2022/09/29 02:25:00;;;;;;;;;;;;;;;;;;5010854;28;7115;-80
2022/09/29 02:27:28;;;;;;;;;;;;;;;;;;5011454;28;8425;-80
2022/09/29 02:29:55;;;;;;;;;;;;;;;;;;5010850;28;8289;-81
2022/09/29 02:32:20;;;;;;;;;;;;;;;;;;5011064;28;7079;-80
2022/09/29 02:34:49;;;;;;;;;;;;;;;;;;5011172;28;8699;-79
2022/09/29 02:37:32;;;;;;;;;;;;;;;;;;5010873;28;8482;-82
2022/09/29 02:40:11;;;;;;;;;;;;;;;;;;5011561;28;7026;-80
2022/09/29 02:42:49;;;;;;;;;;;;;;;;;;5010569;28;7166;-80
2022/09/29 02:45:23;;;;;;;;;;;;;;;;;;5011076;28;6843;-81
2022/09/29 02:48:11;;;;;;;;;;;;;;;;;;5010531;28;7071;-80
2022/09/29 02:50:40;;;;;;;;;;;;;;;;;;5010427;28;7227;-80
2022/09/29 02:53:08;;;;;;;;;;;;;;;;;;4994195;28;8432;-80
2022/09/29 02:55:43;;;;;;;;;;;;;;;;;;4994159;28;6994;-79
2022/09/29 02:58:19;;;;;;;;;;;;;;;;;;5010808;28;8944;-81
2022/09/29 03:00:46;;;;;;;;;;;;;;;;;;5013575;28;7031;-80
2022/09/29 03:03:12;;;;;;;;;;;;;;;;;;5014702;28;7344;-81
2022/09/29 03:05:38;;;;;;;;;;;;;;;;;;5014501;28;9071;-82
2022/09/29 03:08:04;;;;;;;;;;;;;;;;;;5014477;28;8395;-80
2022/09/29 03:10:29;;;;;;;;;;;;;;;;;;5014614;28;7438;-80
2022/09/29 03:12:55;;;;;;;;;;;;;;;;;;5014927;28;8457;-80
2022/09/29 03:15:21;;;;;;;;;;;;;;;;;;5014831;28;7021;-81
2022/09/29 03:17:47;;;;;;;;;;;;;;;;;;5014493;28;8389;-81
2022/09/29 03:20:12;;;;;;;;;;;;;;;;;;5014197;28;8590;-80
2022/09/29 03:22:38;;;;;;;;;;;;;;;;;;5013979;28;7228;-80
2022/09/29 03:25:05;;;;;;;;;;;;;;;;;;5014698;28;8578;-81
2022/09/29 03:27:32;;;;;;;;;;;;;;;;;;5014695;28;8808;-80
2022/09/29 03:29:57;;;;;;;;;;;;;;;;;;5014435;28;8511;-81
2022/09/29 03:32:23;;;;;;;;;;;;;;;;;;5015116;28;7129;-81
2022/09/29 03:34:48;;;;;;;;;;;;;;;;;;5013892;28;7065;-81
2022/09/29 03:37:14;;;;;;;;;;;;;;;;;;5014248;28;8400;-81
2022/09/29 03:39:39;;;;;;;;;;;;;;;;;;5013929;28;8677;-83
2022/09/29 03:42:05;;;;;;;;;;;;;;;;;;5013783;28;9469;-83
2022/09/29 03:44:30;;;;;;;;;;;;;;;;;;5014019;28;8485;-82
2022/09/29 03:46:56;;;;;;;;;;;;;;;;;;4997402;28;8384;-82
2022/09/29 03:49:21;;;;;;;;;;;;;;;;;;5013614;28;6797;-81
2022/09/29 03:51:47;;;;;;;;;;;;;;;;;;5013679;28;7150;-82
2022/09/29 03:54:12;;;;;;;;;;;;;;;;;;5013803;28;7092;-82
2022/09/29 03:56:38;;;;;;;;;;;;;;;;;;5013544;28;8389;-82
2022/09/29 03:59:07;;;;;;;;;;;;;;;;;;5013955;28;8426;-82
2022/09/29 04:01:33;;;;;;;;;;;;;;;;;;5013596;28;7153;-82
2022/09/29 04:03:58;;;;;;;;;;;;;;;;;;5013693;28;8637;-82
2022/09/29 04:06:24;;;;;;;;;;;;;;;;;;5013789;28;8334;-81
2022/09/29 04:08:49;;;;;;;;;;;;;;;;;;5013485;28;7213;-83
2022/09/29 04:11:15;;;;;;;;;;;;;;;;;;5012665;28;8375;-81
2022/09/29 04:13:41;;;;;;;;;;;;;;;;;;5013197;28;7023;-80
2022/09/29 04:16:07;;;;;;;;;;;;;;;;;;5013180;28;8647;-81
2022/09/29 04:18:33;;;;;;;;;;;;;;;;;;5013657;28;8426;-82
2022/09/29 04:21:01;;;;;;;;;;;;;;;;;;5013444;28;8366;-81
2022/09/29 04:23:29;;;;;;;;;;;;;;;;;;5013140;28;7333;-82
2022/09/29 04:25:55;;;;;;;;;;;;;;;;;;5013308;28;7407;-82
2022/09/29 04:28:21;;;;;;;;;;;;;;;;;;5013477;28;7018;-82
2022/09/29 04:30:46;;;;;;;;;;;;;;;;;;5013545;28;8386;-82
2022/09/29 04:33:12;;;;;;;;;;;;;;;;;;5013518;28;8389;-82
2022/09/29 04:35:37;;;;;;;;;;;;;;;;;;5015053;28;6985;-81
2022/09/29 04:38:03;;;;;;;;;;;;;;;;;;5013214;28;8394;-82
2022/09/29 04:40:29;;;;;;;;;;;;;;;;;;5012700;28;7421;-82
2022/09/29 04:42:54;;;;;;;;;;;;;;;;;;5012521;28;6964;-82
2022/09/29 04:45:20;;;;;;;;;;;;;;;;;;5012692;28;8420;-81
2022/09/29 04:47:45;;;;;;;;;;;;;;;;;;5012727;28;9343;-82
2022/09/29 04:50:11;;;;;;;;;;;;;;;;;;5012525;28;8558;-81
2022/09/29 04:52:36;;;;;;;;;;;;;;;;;;5012565;28;8518;-82
2022/09/29 04:55:03;;;;;;;;;;;;;;;;;;5012466;28;8383;-80
2022/09/29 04:57:28;;;;;;;;;;;;;;;;;;5012363;28;8591;-81
2022/09/29 04:59:54;;;;;;;;;;;;;;;;;;5012470;28;7011;-81
2022/09/29 05:02:21;;;;;;;;;;;;;;;;;;5012961;28;6817;-81
2022/09/29 05:04:46;;;;;;;;;;;;;;;;;;5012790;28;8401;-82
2022/09/29 05:07:12;;;;;;;;;;;;;;;;;;5012121;28;7132;-80
2022/09/29 05:09:38;;;;;;;;;;;;;;;;;;5012585;28;8389;-80
2022/09/29 05:12:03;;;;;;;;;;;;;;;;;;5012697;28;9346;-81
2022/09/29 05:14:28;;;;;;;;;;;;;;;;;;5011178;28;7111;-81
2022/09/29 05:16:55;;;;;;;;;;;;;;;;;;5011910;28;6988;-81
2022/09/29 05:19:20;;;;;;;;;;;;;;;;;;5012213;28;8390;-81
2022/09/29 05:21:46;;;;;;;;;;;;;;;;;;5011307;28;7070;-82
2022/09/29 05:24:11;;;;;;;;;;;;;;;;;;5011612;28;7390;-82
2022/09/29 05:26:37;;;;;;;;;;;;;;;;;;5012123;28;7590;-82
2022/09/29 05:29:02;;;;;;;;;;;;;;;;;;5011855;28;7224;-82
2022/09/29 05:31:28;;;;;;;;;;;;;;;;;;5011678;28;8373;-82
2022/09/29 05:33:55;;;;;;;;;;;;;;;;;;5012183;28;9343;-82
2022/09/29 05:36:21;;;;;;;;;;;;;;;;;;5012237;28;7037;-80
2022/09/29 05:38:47;;;;;;;;;;;;;;;;;;5011628;28;8585;-80
2022/09/29 05:41:15;;;;;;;;;;;;;;;;;;5011820;28;8768;-80
2022/09/29 05:43:40;;;;;;;;;;;;;;;;;;5011872;28;7733;-81
2022/09/29 05:46:08;;;;;;;;;;;;;;;;;;5011282;28;8461;-80
2022/09/29 05:48:34;;;;;;;;;;;;;;;;;;5010930;28;7154;-80
2022/09/29 05:51:08;;;;;;;;;;;;;;;;;;5011756;28;8387;-81
2022/09/29 05:53:34;;;;;;;;;;;;;;;;;;5011760;28;7146;-81
2022/09/29 05:56:11;;;;;;;;;;;;;;;;;;5011869;28;8700;-80
2022/09/29 05:58:37;;;;;;;;;;;;;;;;;;5011417;28;8382;-80
2022/09/29 06:01:07;;;;;;;;;;;;;;;;;;5011741;28;7009;-81
2022/09/29 06:03:34;;;;;;;;;;;;;;;;;;5011183;28;8402;-80
2022/09/29 06:06:10;;;;;;;;;;;;;;;;;;5011181;28;7151;-81
2022/09/29 06:08:38;;;;;;;;;;;;;;;;;;5011734;28;8782;-80
2022/09/29 06:11:05;;;;;;;;;;;;;;;;;;5010603;28;7133;-81
2022/09/29 06:13:31;;;;;;;;;;;;;;;;;;5011017;28;8722;-83
2022/09/29 06:16:00;;;;;;;;;;;;;;;;;;5011043;28;7212;-83
2022/09/29 06:18:25;;;;;;;;;;;;;;;;;;5007276;28;7117;-81
2022/09/29 06:20:51;;;;;;;;;;;;;;;;;;4998341;28;6981;-80
2022/09/29 06:23:16;;;;;;;;;;;;;;;;;;4997886;28;8426;-80
2022/09/29 06:25:42;;;;;;;;;;;;;;;;;;4997737;28;8412;-80
2022/09/29 06:28:07;;;;;;;;;;;;;;;;;;4997583;28;6961;-81
2022/09/29 06:30:33;;;;;;;;;;;;;;;;;;4997804;28;8472;-80
2022/09/29 06:32:58;;;;;;;;;;;;;;;;;;4998287;28;7169;-80
2022/09/29 06:38:08;;;;;;;;;;;;;;;;;;5015546;28;6799;-80
2022/09/29 06:40:34;;;;;;;;;;;;;;;;;;4998688;28;8737;-80
2022/09/29 06:42:59;;;;;;;;;;;;;;;;;;4997440;28;7112;-80
2022/09/29 06:45:25;;;;;;;;;;;;;;;;;;4997346;28;7069;-81
2022/09/29 06:47:56;;;;;;;;;;;;;;;;;;4997786;28;8355;-81
2022/09/29 06:50:22;;;;;;;;;;;;;;;;;;4997788;28;8392;-80
2022/09/29 06:52:49;;;;;;;;;;;;;;;;;;4997548;28;8392;-81
2022/09/29 06:55:14;;;;;;;;;;;;;;;;;;4997377;28;7037;-81
2022/09/29 06:57:40;;;;;;;;;;;;;;;;;;4996449;28;7194;-80
2022/09/29 07:00:06;;;;;;;;;;;;;;;;;;4997867;28;7085;-81
2022/09/29 07:02:32;;;;;;;;;;;;;;;;;;4997808;28;7055;-82
2022/09/29 07:04:57;;;;;;;;;;;;;;;;;;4997646;28;8714;-82
2022/09/29 07:07:23;;;;;;;;;;;;;;;;;;4998500;28;7014;-82
2022/09/29 07:09:48;;;;;;;;;;;;;;;;;;4998341;28;7181;-83
2022/09/29 07:12:14;;;;;;;;;;;;;;;;;;4997139;28;7161;-82
2022/09/29 07:14:39;;;;;;;;;;;;;;;;;;4997322;28;7129;-82
2022/09/29 07:17:05;;;;;;;;;;;;;;;;;;4998331;28;8392;-82
2022/09/29 07:19:31;;;;;;;;;;;;;;;;;;4997642;28;8721;-81
2022/09/29 07:21:56;;;;;;;;;;;;;;;;;;4997145;28;8700;-84
2022/09/29 07:24:23;;;;;;;;;;;;;;;;;;4997408;28;8395;-81
2022/09/29 07:26:49;;;;;;;;;;;;;;;;;;4997173;28;8380;-82
2022/09/29 07:29:15;;;;;;;;;;;;;;;;;;4997204;28;8390;-82
2022/09/29 07:31:41;;;;;;;;;;;;;;;;;;4997435;28;8498;-82
2022/09/29 07:34:07;;;;;;;;;;;;;;;;;;4997386;28;7398;-83
2022/09/29 07:36:32;;;;;;;;;;;;;;;;;;4997519;28;8686;-81
2022/09/29 07:38:58;;;;;;;;;;;;;;;;;;4997368;28;7229;-81
2022/09/29 07:41:23;;;;;;;;;;;;;;;;;;4996870;28;8399;-83
2022/09/29 07:58:31;;;;;;;;;;;;;;;;;;5018181;28;6915;-83
2022/09/29 08:00:57;;;;;;;;;;;;;;;;;;5000244;28;7222;-83
2022/09/29 08:03:24;;;;;;;;;;;;;;;;;;5000775;28;8462;-83
2022/09/29 08:05:51;;;;;;;;;;;;;;;;;;5000329;28;7237;-83
2022/09/29 08:08:16;;;;;;;;;;;;;;;;;;5000515;28;7030;-83
2022/09/29 08:10:42;;;;;;;;;;;;;;;;;;5000139;28;7033;-82
2022/09/29 08:13:08;;;;;;;;;;;;;;;;;;4997034;28;7011;-84
2022/09/29 08:15:33;;;;;;;;;;;;;;;;;;4993738;28;7398;-83
2022/09/29 08:17:59;;;;;;;;;;;;;;;;;;4993876;28;8430;-83
2022/09/29 08:20:25;;;;;;;;;;;;;;;;;;4993763;28;8350;-83
2022/09/29 08:22:54;;;;;;;;;;;;;;;;;;4993746;28;7153;-84
2022/09/29 08:25:19;;;;;;;;;;;;;;;;;;4993420;28;7022;-82
2022/09/29 08:27:45;;;;;;;;;;;;;;;;;;4993673;28;8368;-82
2022/09/29 08:30:11;;;;;;;;;;;;;;;;;;4993474;28;7291;-82
2022/09/29 08:32:37;;;;;;;;;;;;;;;;;;4993686;28;7192;-83
2022/09/29 08:35:04;;;;;;;;;;;;;;;;;;4993314;28;7207;-82
2022/09/29 08:37:30;;;;;;;;;;;;;;;;;;4993503;28;7422;-83
2022/09/29 08:39:56;;;;;;;;;;;;;;;;;;4993440;28;7064;-84
2022/09/29 08:42:24;;;;;;;;;;;;;;;;;;4993516;28;8451;-83
2022/09/29 08:44:57;;;;;;;;;;;;;;;;;;4993942;28;8454;-84
2022/09/29 08:47:27;;;;;;;;;;;;;;;;;;4993025;28;7016;-82
2022/09/29 08:50:13;;;;;;;;;;;;;;;;;;4993993;28;6925;-81
2022/09/29 08:52:42;;;;;;;;;;;;;;;;;;4976664;28;7040;-82
2022/09/29 08:55:17;;;;;;;;;;;;;;;;;;4993247;28;7249;-82
2022/09/29 08:57:45;;;;;;;;;;;;;;;;;;4991718;28;6821;-82
2022/09/29 09:00:12;;;;;;;;;;;;;;;;;;4992815;28;7066;-81
2022/09/29 09:02:56;;;;;;;;;;;;;;;;;;4993357;28;8422;-81
2022/09/29 09:05:22;;;;;;;;;;;;;;;;;;4992767;28;8419;-81
2022/09/29 09:08:15;;;;;;;;;;;;;;;;;;4990933;28;6965;-82
2022/09/29 09:10:59;;;;;;;;;;;;;;;;;;4973742;28;8710;-83
2022/09/29 09:13:54;;;;;;;;;;;;;;;;;;4966938;28;8427;-84
2022/09/29 09:16:39;;;;;;;;;;;;;;;;;;4986854;28;7021;-83
2022/09/29 09:19:04;;;;;;;;;;;;;;;;;;4977247;28;8450;-81
2022/09/29 09:21:53;;;;;;;;;;;;;;;;;;4985690;28;8566;-82
2022/09/29 09:24:37;;;;;;;;;;;;;;;;;;4966438;28;8488;-79
2022/09/29 09:27:03;;;;;;;;;;;;;;;;;;4972147;28;7143;-82
2022/09/29 09:29:33;;;;;;;;;;;;;;;;;;4973180;28;8720;-82
2022/09/29 09:32:02;;;;;;;;;;;;;;;;;;4968979;28;8989;-84
2022/09/29 09:34:30;;;;;;;;;;;;;;;;;;4987932;28;7236;-83
2022/09/29 09:37:01;;;;;;;;;;;;;;;;;;4970707;28;8603;-81
2022/09/29 09:39:42;;;;;;;;;;;;;;;;;;4975051;28;7152;-81
2022/09/29 09:42:14;;;;;;;;;;;;;;;;;;4991122;28;8451;-82
2022/09/29 09:44:55;;;;;;;;;;;;;;;;;;4988591;28;7148;-79
2022/09/29 09:47:24;;;;;;;;;;;;;;;;;;4959849;28;8417;-82
2022/09/29 09:49:55;;;;;;;;;;;;;;;;;;4992447;28;7033;-81
2022/09/29 09:52:23;;;;;;;;;;;;;;;;;;4991206;28;8603;-82
2022/09/29 09:54:52;;;;;;;;;;;;;;;;;;4991010;28;8767;-82
2022/09/29 09:57:17;;;;;;;;;;;;;;;;;;4991152;28;7206;-83
2022/09/29 09:59:56;;;;;;;;;;;;;;;;;;4989818;28;8274;-80
2022/09/29 10:02:22;;;;;;;;;;;;;;;;;;4991138;28;7103;-82
2022/09/29 10:04:51;;;;;;;;;;;;;;;;;;4975405;28;7211;-82
2022/09/29 10:07:19;;;;;;;;;;;;;;;;;;4975171;28;7038;-84
2022/09/29 10:09:45;;;;;;;;;;;;;;;;;;4975114;28;8419;-82
2022/09/29 10:12:16;;;;;;;;;;;;;;;;;;4975304;28;8485;-83
2022/09/29 10:14:48;;;;;;;;;;;;;;;;;;4977917;28;8588;-83
2022/09/29 10:17:18;;;;;;;;;;;;;;;;;;4978585;28;8434;-83
2022/09/29 10:20:10;;;;;;;;;;;;;;;;;;4978626;28;7431;-81
2022/09/29 10:22:36;;;;;;;;;;;;;;;;;;4976020;28;7158;-84
2022/09/29 10:25:07;;;;;;;;;;;;;;;;;;4978560;28;8768;-83
2022/09/29 10:27:35;;;;;;;;;;;;;;;;;;4978386;28;8814;-84
2022/09/29 10:30:01;;;;;;;;;;;;;;;;;;4978395;28;7224;-84
2022/09/29 10:32:35;;;;;;;;;;;;;;;;;;4978878;28;7028;-86
2022/09/29 10:35:08;;;;;;;;;;;;;;;;;;4978340;28;6816;-83
2022/09/29 10:37:40;;;;;;;;;;;;;;;;;;4978145;28;7041;-84
2022/09/29 10:40:09;;;;;;;;;;;;;;;;;;4978390;28;7069;-85
2022/09/29 10:42:39;;;;;;;;;;;;;;;;;;4978385;28;7190;-83
2022/09/29 10:45:13;;;;;;;;;;;;;;;;;;4978931;28;8443;-84
2022/09/29 10:47:41;;;;;;;;;;;;;;;;;;4979075;28;7234;-85
2022/09/29 10:50:13;;;;;;;;;;;;;;;;;;4978915;28;6937;-84
2022/09/29 10:52:42;;;;;;;;;;;;;;;;;;4978215;28;7177;-84
2022/09/29 10:55:15;;;;;;;;;;;;;;;;;;4978497;28;8520;-84
2022/09/29 10:57:45;;;;;;;;;;;;;;;;;;4977924;28;8818;-82
2022/09/29 11:00:29;;;;;;;;;;;;;;;;;;4977521;28;7014;-83
2022/09/29 11:03:05;;;;;;;;;;;;;;;;;;4978222;28;8438;-82
2022/09/29 11:05:31;;;;;;;;;;;;;;;;;;4978224;28;6896;-83
2022/09/29 11:07:57;;;;;;;;;;;;;;;;;;4978123;28;8672;-83
2022/09/29 11:10:31;;;;;;;;;;;;;;;;;;4978048;28;7009;-83
2022/09/29 11:12:59;;;;;;;;;;;;;;;;;;4977703;28;7032;-83
2022/09/29 11:15:27;;;;;;;;;;;;;;;;;;4974432;28;6994;-82
2022/09/29 11:17:54;;;;;;;;;;;;;;;;;;4974757;28;7021;-83
2022/09/29 11:20:25;;;;;;;;;;;;;;;;;;4975615;28;8745;-83
2022/09/29 11:23:08;;;;;;;;;;;;;;;;;;4978474;28;7054;-83
2022/09/29 11:25:36;;;;;;;;;;;;;;;;;;4978450;28;7187;-82
2022/09/29 11:28:21;;;;;;;;;;;;;;;;;;4978589;28;8597;-83
2022/09/29 11:30:55;;;;;;;;;;;;;;;;;;4978379;28;8418;-83
2022/09/29 11:33:36;;;;;;;;;;;;;;;;;;4978406;28;7227;-82
2022/09/29 11:36:37;;;;;;;;;;;;;;;;;;4978164;28;7263;-82
2022/09/29 11:39:03;;;;;;;;;;;;;;;;;;4942702;28;7173;-83
2022/09/29 11:41:31;;;;;;;;;;;;;;;;;;4941933;28;8744;-83
2022/09/29 11:44:07;;;;;;;;;;;;;;;;;;4942070;28;7367;-83
2022/09/29 11:46:50;;;;;;;;;;;;;;;;;;4942063;28;8299;-83
2022/09/29 11:49:30;;;;;;;;;;;;;;;;;;4942372;28;8389;-83
2022/09/29 11:52:07;;;;;;;;;;;;;;;;;;4941873;28;7155;-83
2022/09/29 11:54:39;;;;;;;;;;;;;;;;;;4938362;29;8761;-83
2022/09/29 11:57:13;;;;;;;;;;;;;;;;;;4938595;29;8447;-84
2022/09/29 11:59:59;;;;;;;;;;;;;;;;;;4938608;29;8824;-83
2022/09/29 12:02:43;;;;;;;;;;;;;;;;;;4938303;29;8503;-84
2022/09/29 12:05:29;;;;;;;;;;;;;;;;;;4938758;29;7010;-84
2022/09/29 12:08:09;;;;;;;;;;;;;;;;;;4928775;29;8702;-83
2022/09/29 12:10:53;;;;;;;;;;;;;;;;;;4938292;29;8331;-83
2022/09/29 12:13:37;;;;;;;;;;;;;;;;;;4960198;28;7018;-83
2022/09/29 12:16:09;;;;;;;;;;;;;;;;;;4974427;28;7231;-84
2022/09/29 12:18:47;;;;;;;;;;;;;;;;;;4958668;28;7229;-84
2022/09/29 12:21:16;;;;;;;;;;;;;;;;;;4974819;28;7073;-83
2022/09/29 12:23:44;;;;;;;;;;;;;;;;;;4958406;28;8467;-83
2022/09/29 12:26:19;;;;;;;;;;;;;;;;;;4957786;28;7753;-83
2022/09/29 12:29:07;;;;;;;;;;;;;;;;;;4957909;28;7342;-84
2022/09/29 12:31:40;;;;;;;;;;;;;;;;;;4973688;28;7047;-84
2022/09/29 12:34:15;;;;;;;;;;;;;;;;;;4958021;28;7274;-83
2022/09/29 12:36:52;;;;;;;;;;;;;;;;;;4958776;28;8323;-84
2022/09/29 12:39:27;;;;;;;;;;;;;;;;;;4973829;28;7385;-83
2022/09/29 12:41:58;;;;;;;;;;;;;;;;;;4973863;28;8514;-83
2022/09/29 12:44:23;;;;;;;;;;;;;;;;;;4970969;28;7164;-83
2022/09/29 12:47:00;;;;;;;;;;;;;;;;;;4993181;28;7387;-83
2022/09/29 12:49:33;;;;;;;;;;;;;;;;;;4968424;28;6859;-85
2022/09/29 12:52:04;;;;;;;;;;;;;;;;;;4985092;28;7475;-83
2022/09/29 12:54:45;;;;;;;;;;;;;;;;;;4957529;28;7058;-83
2022/09/29 12:57:17;;;;;;;;;;;;;;;;;;4958381;28;6896;-83
2022/09/29 13:00:05;;;;;;;;;;;;;;;;;;4957692;28;8449;-84
2022/09/29 13:02:33;;;;;;;;;;;;;;;;;;4957905;28;7170;-84
2022/09/29 13:05:12;;;;;;;;;;;;;;;;;;4957574;28;8455;-83
2022/09/29 13:07:56;;;;;;;;;;;;;;;;;;4957146;28;8446;-83
2022/09/29 13:10:40;;;;;;;;;;;;;;;;;;4957941;28;7857;-84
2022/09/29 13:13:14;;;;;;;;;;;;;;;;;;4957129;28;8605;-84
2022/09/29 13:15:58;;;;;;;;;;;;;;;;;;4957151;28;7157;-83
2022/09/29 13:18:27;;;;;;;;;;;;;;;;;;4957451;28;7058;-83
2022/09/29 13:21:25;;;;;;;;;;;;;;;;;;4957974;28;8514;-84
2022/09/29 13:24:26;;;;;;;;;;;;;;;;;;4978286;28;7060;-83
2022/09/29 13:27:10;;;;;;;;;;;;;;;;;;4969711;28;8508;-84
2022/09/29 13:29:58;;;;;;;;;;;;;;;;;;4960658;28;8424;-83
2022/09/29 13:32:24;;;;;;;;;;;;;;;;;;4956768;28;8836;-83
2022/09/29 13:34:59;;;;;;;;;;;;;;;;;;4956593;28;7793;-83
2022/09/29 13:37:27;;;;;;;;;;;;;;;;;;4956767;28;7654;-84
2022/09/29 13:40:03;;;;;;;;;;;;;;;;;;4956697;28;8369;-84
2022/09/29 13:42:38;;;;;;;;;;;;;;;;;;4956286;28;7277;-83
2022/09/29 13:45:18;;;;;;;;;;;;;;;;;;4972998;28;6996;-83
2022/09/29 13:47:45;;;;;;;;;;;;;;;;;;4972582;28;7009;-83
2022/09/29 13:50:34;;;;;;;;;;;;;;;;;;4956368;28;8695;-84
2022/09/29 13:53:15;;;;;;;;;;;;;;;;;;4956070;28;7072;-84
2022/09/29 13:55:52;;;;;;;;;;;;;;;;;;4972392;28;8476;-84
2022/09/29 13:58:25;;;;;;;;;;;;;;;;;;4956279;28;8431;-83
2022/09/29 14:00:52;;;;;;;;;;;;;;;;;;4956413;28;8633;-84
2022/09/29 14:03:31;;;;;;;;;;;;;;;;;;4956548;28;8506;-84
2022/09/29 14:06:15;;;;;;;;;;;;;;;;;;4975766;28;8391;-83
2022/09/29 14:08:50;;;;;;;;;;;;;;;;;;4975009;28;8864;-83
2022/09/29 14:11:18;;;;;;;;;;;;;;;;;;4973310;28;7091;-83
2022/09/29 14:13:51;;;;;;;;;;;;;;;;;;4971849;28;8506;-83
2022/09/29 14:16:16;;;;;;;;;;;;;;;;;;4970713;28;7086;-83
2022/09/29 14:18:53;;;;;;;;;;;;;;;;;;4990882;28;8459;-82
2022/09/29 14:21:37;;;;;;;;;;;;;;;;;;4975586;28;8424;-83
2022/09/29 14:24:02;;;;;;;;;;;;;;;;;;4975028;28;8989;-83
2022/09/29 14:26:43;;;;;;;;;;;;;;;;;;4975571;28;7124;-82
2022/09/29 14:29:16;;;;;;;;;;;;;;;;;;4975665;28;8522;-83
2022/09/29 14:31:44;;;;;;;;;;;;;;;;;;4975533;28;7032;-83
2022/09/29 14:34:14;;;;;;;;;;;;;;;;;;4975311;28;7164;-83
2022/09/29 14:36:44;;;;;;;;;;;;;;;;;;4975234;28;7253;-82
2022/09/29 14:39:11;;;;;;;;;;;;;;;;;;4974854;28;9335;-83
2022/09/29 14:41:41;;;;;;;;;;;;;;;;;;4975366;28;8512;-82
2022/09/29 14:44:25;;;;;;;;;;;;;;;;;;4974968;28;7203;-83
2022/09/29 14:52:53;;;;;;;;;;;;;;;;;;4976063;28;6768;-83
2022/09/29 14:55:30;;;;;;;;;;;;;;;;;;4975106;28;8475;-83
2022/09/29 14:57:56;;;;;;;;;;;;;;;;;;4975020;28;7166;-83
2022/09/29 15:00:28;;;;;;;;;;;;;;;;;;4991413;28;8621;-84
2022/09/29 15:02:55;;;;;;;;;;;;;;;;;;4973738;28;8842;-84
2022/09/29 15:05:27;;;;;;;;;;;;;;;;;;4974061;28;8735;-84
2022/09/29 15:07:53;;;;;;;;;;;;;;;;;;4991102;28;7045;-84
2022/09/29 15:10:22;;;;;;;;;;;;;;;;;;4975434;28;8649;-82
2022/09/29 15:12:49;;;;;;;;;;;;;;;;;;4974914;28;8404;-82
2022/09/29 15:15:32;;;;;;;;;;;;;;;;;;4974420;28;7354;-81
2022/09/29 15:18:06;;;;;;;;;;;;;;;;;;4974557;28;7025;-82
2022/09/29 15:20:33;;;;;;;;;;;;;;;;;;4974816;28;7030;-81
2022/09/29 15:23:21;;;;;;;;;;;;;;;;;;4990823;28;7123;-83
2022/09/29 15:25:47;;;;;;;;;;;;;;;;;;4975716;28;7133;-81
2022/09/29 15:28:16;;;;;;;;;;;;;;;;;;4973849;28;7057;-82
2022/09/29 15:30:43;;;;;;;;;;;;;;;;;;4973556;28;8412;-83
2022/09/29 15:33:14;;;;;;;;;;;;;;;;;;4973607;28;7125;-82
2022/09/29 15:35:46;;;;;;;;;;;;;;;;;;4990002;28;6906;-81
2022/09/29 15:38:16;;;;;;;;;;;;;;;;;;4973791;28;8456;-80
2022/09/29 15:40:43;;;;;;;;;;;;;;;;;;4973283;28;7224;-84
2022/09/29 15:43:24;;;;;;;;;;;;;;;;;;4974129;28;7045;-83
2022/09/29 15:45:58;;;;;;;;;;;;;;;;;;4974114;28;7182;-84
2022/09/29 15:48:28;;;;;;;;;;;;;;;;;;4974674;28;7143;-83
2022/09/29 15:50:54;;;;;;;;;;;;;;;;;;4974971;28;7365;-82
2022/09/29 15:53:23;;;;;;;;;;;;;;;;;;4974496;28;7137;-83
2022/09/29 15:55:50;;;;;;;;;;;;;;;;;;4974878;28;7654;-82
2022/09/29 15:58:25;;;;;;;;;;;;;;;;;;4974231;28;7116;-83
2022/09/29 16:01:01;;;;;;;;;;;;;;;;;;4990511;28;8875;-81
2022/09/29 16:03:40;;;;;;;;;;;;;;;;;;4990231;28;8794;-83
2022/09/29 16:06:13;;;;;;;;;;;;;;;;;;4974516;28;8467;-82
2022/09/29 16:08:44;;;;;;;;;;;;;;;;;;4977498;28;7182;-82
2022/09/29 16:11:19;;;;;;;;;;;;;;;;;;4977740;28;7175;-83
2022/09/29 16:13:49;;;;;;;;;;;;;;;;;;4977814;28;7149;-83
2022/09/29 16:16:15;;;;;;;;;;;;;;;;;;4977187;28;7172;-82
2022/09/29 16:18:48;;;;;;;;;;;;;;;;;;4977832;28;7262;-83
2022/09/29 16:21:19;;;;;;;;;;;;;;;;;;4977720;28;8392;-83
2022/09/29 16:23:47;;;;;;;;;;;;;;;;;;4977260;28;8397;-83
2022/09/29 16:26:18;;;;;;;;;;;;;;;;;;4994423;28;7106;-84
2022/09/29 16:28:58;;;;;;;;;;;;;;;;;;4977394;28;7341;-83
2022/09/29 16:31:26;;;;;;;;;;;;;;;;;;4993908;28;8454;-81
2022/09/29 16:33:53;;;;;;;;;;;;;;;;;;4977284;28;8684;-81
2022/09/29 16:36:26;;;;;;;;;;;;;;;;;;4977661;28;7023;-82
2022/09/29 16:38:53;;;;;;;;;;;;;;;;;;4976916;28;6934;-82
2022/09/29 16:41:38;;;;;;;;;;;;;;;;;;4977380;28;7429;-82
2022/09/29 16:44:22;;;;;;;;;;;;;;;;;;4977171;28;8456;-82
2022/09/29 16:46:50;;;;;;;;;;;;;;;;;;4977164;28;7431;-81
2022/09/29 16:49:21;;;;;;;;;;;;;;;;;;4993165;28;7096;-82
2022/09/29 16:51:47;;;;;;;;;;;;;;;;;;4977080;28;8413;-83
2022/09/29 16:54:15;;;;;;;;;;;;;;;;;;4976732;28;7260;-81
2022/09/29 16:56:43;;;;;;;;;;;;;;;;;;4976602;28;8084;-83
2022/09/29 16:59:17;;;;;;;;;;;;;;;;;;4976850;28;7354;-82
2022/09/29 17:01:45;;;;;;;;;;;;;;;;;;4976515;28;7042;-82
2022/09/29 17:04:11;;;;;;;;;;;;;;;;;;4976746;28;7057;-83
2022/09/29 17:06:40;;;;;;;;;;;;;;;;;;4976685;28;7451;-81
2022/09/29 17:09:06;;;;;;;;;;;;;;;;;;4976754;28;8740;-82
2022/09/29 17:11:31;;;;;;;;;;;;;;;;;;4977098;28;8478;-84
2022/09/29 17:13:56;;;;;;;;;;;;;;;;;;4974819;28;8794;-81
2022/09/29 17:16:23;;;;;;;;;;;;;;;;;;4974645;28;8400;-83
2022/09/29 17:18:52;;;;;;;;;;;;;;;;;;4974771;28;8893;-84
2022/09/29 17:21:19;;;;;;;;;;;;;;;;;;4976251;28;7439;-81
2022/09/29 17:23:45;;;;;;;;;;;;;;;;;;4976467;28;8755;-82
2022/09/29 17:29:14;;;;;;;;;;;;;;;;;;4977149;28;6784;-82
2022/09/29 17:31:40;;;;;;;;;;;;;;;;;;4976247;28;6996;-82
2022/09/29 17:34:06;;;;;;;;;;;;;;;;;;4972736;28;8782;-78
2022/09/29 17:36:32;;;;;;;;;;;;;;;;;;4975756;28;7335;-82
2022/09/29 17:38:57;;;;;;;;;;;;;;;;;;4976043;28;8466;-81
2022/09/29 17:41:23;;;;;;;;;;;;;;;;;;4976362;28;9463;-82
2022/09/29 17:43:48;;;;;;;;;;;;;;;;;;4991516;28;6831;-82
2022/09/29 17:46:14;;;;;;;;;;;;;;;;;;4975762;28;8382;-82
2022/09/29 17:48:40;;;;;;;;;;;;;;;;;;4990625;28;8341;-82
2022/09/29 17:51:17;;;;;;;;;;;;;;;;;;4991766;28;8441;-81
2022/09/29 17:53:43;;;;;;;;;;;;;;;;;;4992128;28;7128;-82